createdAt,value
2019-01-13T00:00:42.228Z,97382.48
2019-01-13T00:03:14.690Z,97381.27
2019-01-13T00:05:46.999Z,97391.49
2019-01-13T00:08:19.356Z,97386.16
2019-01-13T00:10:51.668Z,97387.47
2019-01-13T00:13:23.931Z,97391.86
2019-01-13T00:15:56.353Z,97387.50
2019-01-13T00:18:28.510Z,97379.55
2019-01-13T00:21:01.013Z,97375.67
2019-01-13T00:23:33.448Z,97378.27
2019-01-13T00:26:05.954Z,97374.56
2019-01-13T00:28:38.420Z,97374.39
2019-01-13T00:31:10.922Z,97376.08
2019-01-13T00:33:43.210Z,97381.20
2019-01-13T00:36:15.615Z,97380.33
2019-01-13T00:38:47.871Z,97381.88
2019-01-13T00:41:20.084Z,97381.70
2019-01-13T00:43:52.445Z,97384.52
2019-01-13T00:46:24.748Z,97388.72
2019-01-13T00:48:57.035Z,97386.52
2019-01-13T00:51:29.390Z,97392.95
2019-01-13T00:54:01.556Z,97393.45
2019-01-13T00:56:33.874Z,97391.02
2019-01-13T00:59:06.335Z,97393.83
2019-01-13T01:01:38.722Z,97397.19
2019-01-13T01:04:11.080Z,97389.62
2019-01-13T01:06:43.495Z,97387.45
2019-01-13T01:09:15.956Z,97397.47
2019-01-13T01:11:49.085Z,97389.38
2019-01-13T01:14:21.626Z,97391.21
2019-01-13T01:16:53.924Z,97390.58
2019-01-13T01:19:26.384Z,97387.53
2019-01-13T01:21:58.692Z,97386.95
2019-01-13T01:24:30.858Z,97388.22
2019-01-13T01:27:03.255Z,97388.09
2019-01-13T01:29:35.405Z,97391.11
2019-01-13T01:32:07.879Z,97395.33
2019-01-13T01:34:40.025Z,97394.13
2019-01-13T01:37:12.530Z,97396.36
2019-01-13T01:39:44.687Z,97392.33
2019-01-13T01:42:16.968Z,97398.52
2019-01-13T01:44:49.221Z,97395.88
2019-01-13T01:47:21.431Z,97396.31
2019-01-13T01:49:53.696Z,97395.81
2019-01-13T01:52:25.946Z,97397.75
2019-01-13T01:54:58.212Z,97405.05
2019-01-13T01:57:30.621Z,97404.22
2019-01-13T02:00:02.882Z,97402.77
2019-01-13T02:02:35.292Z,97401.30
2019-01-13T02:05:08.397Z,97389.23
2019-01-13T02:07:41.014Z,97400.22
2019-01-13T02:10:19.169Z,97393.47
2019-01-13T02:12:52.690Z,97387.89
2019-01-13T02:15:29.464Z,97382.81
2019-01-13T02:18:01.878Z,97378.87
2019-01-13T02:20:34.053Z,97377.77
2019-01-13T02:23:06.475Z,97377.81
2019-01-13T02:25:39.225Z,97377.26
2019-01-13T02:28:11.641Z,97378.06
2019-01-13T02:30:49.015Z,97378.35
2019-01-13T02:33:18.090Z,97387.66
2019-01-13T02:35:50.243Z,97390.55
2019-01-13T02:38:22.661Z,97389.91
2019-01-13T02:40:54.917Z,97379.98
2019-01-13T02:43:27.224Z,97375.09
2019-01-13T02:45:59.484Z,97375.17
2019-01-13T02:48:31.684Z,97380.95
2019-01-13T02:51:04.096Z,97377.30
2019-01-13T02:53:36.400Z,97367.27
2019-01-13T02:56:08.665Z,97375.48
2019-01-13T02:58:40.959Z,97381.02
2019-01-13T03:01:13.416Z,97381.41
2019-01-13T03:03:45.901Z,97376.06
2019-01-13T03:06:18.077Z,97378.44
2019-01-13T03:08:50.387Z,97375.72
2019-01-13T03:11:22.751Z,97374.54
2019-01-13T03:13:54.957Z,97374.79
2019-01-13T03:16:27.217Z,97383.20
2019-01-13T03:18:59.524Z,97385.25
2019-01-13T03:21:31.779Z,97384.69
2019-01-13T03:24:04.087Z,97380.98
2019-01-13T03:26:36.352Z,97380.82
2019-01-13T03:29:08.662Z,97381.59
2019-01-13T03:31:40.929Z,97384.15
2019-01-13T03:34:13.230Z,97387.80
2019-01-13T03:36:45.687Z,97379.55
2019-01-13T03:39:17.994Z,97384.94
2019-01-13T03:41:50.248Z,97380.11
2019-01-13T03:44:22.659Z,97383.98
2019-01-13T03:46:54.924Z,97371.19
2019-01-13T03:49:27.347Z,97370.58
2019-01-13T03:51:59.611Z,97365.86
2019-01-13T03:54:31.968Z,97364.61
2019-01-13T03:57:04.420Z,97366.74
2019-01-13T03:59:36.829Z,97369.42
2019-01-13T04:02:09.093Z,97375.56
2019-01-13T04:04:41.596Z,97372.22
2019-01-13T04:07:13.863Z,97371.53
2019-01-13T04:09:46.162Z,97364.00
2019-01-13T04:12:18.534Z,97365.64
2019-01-13T04:14:50.945Z,97360.58
2019-01-13T04:17:23.512Z,97356.41
2019-01-13T04:19:55.914Z,97347.86
2019-01-13T04:22:28.073Z,97345.33
2019-01-13T04:25:00.349Z,97342.24
2019-01-13T04:27:32.604Z,97347.74
2019-01-13T04:30:05.862Z,97354.73
2019-01-13T04:32:38.011Z,97353.46
2019-01-13T04:35:10.767Z,97351.95
2019-01-13T04:37:42.921Z,97345.65
2019-01-13T04:40:15.430Z,97343.19
2019-01-13T04:42:47.793Z,97342.59
2019-01-13T04:45:20.199Z,97344.23
2019-01-13T04:47:52.350Z,97342.64
2019-01-13T04:50:24.656Z,97347.45
2019-01-13T04:52:57.116Z,97350.91
2019-01-13T04:55:29.565Z,97345.18
2019-01-13T04:58:02.032Z,97348.91
2019-01-13T05:00:34.453Z,97345.25
2019-01-13T05:03:06.821Z,97355.27
2019-01-13T05:05:39.127Z,97351.59
2019-01-13T05:08:11.495Z,97351.70
2019-01-13T05:10:43.800Z,97354.27
2019-01-13T05:13:15.966Z,97349.66
2019-01-13T05:15:48.179Z,97347.47
2019-01-13T05:18:20.334Z,97347.63
2019-01-13T05:20:52.712Z,97346.32
2019-01-13T05:23:24.872Z,97336.48
2019-01-13T05:25:57.183Z,97342.89
2019-01-13T05:28:29.337Z,97340.78
2019-01-13T05:31:01.552Z,97331.38
2019-01-13T05:33:33.717Z,97334.37
2019-01-13T05:36:06.229Z,97334.06
2019-01-13T05:38:38.389Z,97331.69
2019-01-13T05:41:10.710Z,97329.30
2019-01-13T05:43:42.967Z,97321.39
2019-01-13T05:46:15.379Z,97316.83
2019-01-13T05:48:47.623Z,97310.47
2019-01-13T05:51:19.830Z,97308.36
2019-01-13T05:53:52.247Z,97307.99
2019-01-13T05:56:24.569Z,97304.97
2019-01-13T05:58:56.728Z,97304.00
2019-01-13T06:01:29.036Z,97304.73
2019-01-13T06:04:01.190Z,97301.42
2019-01-13T06:06:33.601Z,97301.34
2019-01-13T06:09:08.264Z,97298.84
2019-01-13T06:11:40.779Z,97292.79
2019-01-13T06:14:13.246Z,97288.42
2019-01-13T06:16:45.550Z,97283.31
2019-01-13T06:19:17.711Z,97287.23
2019-01-13T06:21:49.928Z,97290.73
2019-01-13T06:24:22.093Z,97290.09
2019-01-13T06:26:54.403Z,97293.11
2019-01-13T06:29:26.650Z,97294.59
2019-01-13T06:31:58.928Z,97288.05
2019-01-13T06:34:31.089Z,97272.80
2019-01-13T06:37:03.390Z,97269.86
2019-01-13T06:39:35.640Z,97282.05
2019-01-13T06:42:08.046Z,97283.58
2019-01-13T06:44:40.203Z,97274.34
2019-01-13T06:47:12.519Z,97274.60
2019-01-13T06:49:44.780Z,97274.28
2019-01-13T06:52:17.095Z,97276.95
2019-01-13T06:54:49.302Z,97270.36
2019-01-13T06:57:21.516Z,97268.88
2019-01-13T06:59:53.789Z,97267.34
2019-01-13T07:02:26.103Z,97271.06
2019-01-13T07:04:58.281Z,97271.02
2019-01-13T07:07:30.491Z,97272.52
2019-01-13T07:10:02.656Z,97263.91
2019-01-13T07:12:34.862Z,97262.97
2019-01-13T07:15:09.999Z,97255.94
2019-01-13T07:17:42.400Z,97259.41
2019-01-13T07:20:18.035Z,97249.73
2019-01-13T07:22:50.801Z,97248.03
2019-01-13T07:25:23.373Z,97250.86
2019-01-13T07:27:55.701Z,97241.23
2019-01-13T07:30:28.679Z,97246.14
2019-01-13T07:33:00.870Z,97237.69
2019-01-13T07:35:33.312Z,97237.47
2019-01-13T07:38:05.512Z,97231.63
2019-01-13T07:40:37.859Z,97232.27
2019-01-13T07:43:10.148Z,97231.83
2019-01-13T07:45:42.364Z,97232.52
2019-01-13T07:48:14.741Z,97232.84
2019-01-13T07:50:46.961Z,97228.06
2019-01-13T07:53:19.326Z,97224.39
2019-01-13T07:55:51.687Z,97222.32
2019-01-13T07:58:23.963Z,97223.76
2019-01-13T08:00:56.324Z,97225.66
2019-01-13T08:03:28.714Z,97222.11
2019-01-13T08:06:01.063Z,97215.05
2019-01-13T08:08:33.266Z,97222.30
2019-01-13T08:11:05.569Z,97215.25
2019-01-13T08:13:37.729Z,97216.59
2019-01-13T08:16:10.144Z,97215.11
2019-01-13T08:18:42.406Z,97213.64
2019-01-13T08:21:14.827Z,97212.70
2019-01-13T08:23:47.219Z,97211.95
2019-01-13T08:26:19.679Z,97214.45
2019-01-13T08:28:51.971Z,97212.70
2019-01-13T08:31:24.514Z,97208.44
2019-01-13T08:33:56.830Z,97206.47
2019-01-13T08:36:29.197Z,97205.10
2019-01-13T08:39:01.510Z,97199.36
2019-01-13T08:41:33.970Z,97194.14
2019-01-13T08:44:06.698Z,97185.02
2019-01-13T08:46:39.185Z,97179.95
2019-01-13T08:49:11.591Z,97177.95
2019-01-13T08:51:43.952Z,97170.52
2019-01-13T08:54:16.480Z,97163.67
2019-01-13T08:56:49.000Z,97162.03
2019-01-13T08:59:21.311Z,97162.39
2019-01-13T09:01:53.682Z,97163.77
2019-01-13T09:04:26.007Z,97153.25
2019-01-13T09:06:58.570Z,97156.45
2019-01-13T09:09:30.895Z,97159.53
2019-01-13T09:12:03.359Z,97158.63
2019-01-13T09:14:35.900Z,97148.21
2019-01-13T09:17:08.370Z,97147.56
2019-01-13T09:19:40.782Z,97134.45
2019-01-13T09:22:13.366Z,97128.07
2019-01-13T09:24:45.563Z,97124.61
2019-01-13T09:27:17.882Z,97116.80
2019-01-13T09:29:50.184Z,97112.17
2019-01-13T09:32:22.558Z,97114.51
2019-01-13T09:34:54.741Z,97116.20
2019-01-13T09:37:26.952Z,97117.90
2019-01-13T09:39:59.125Z,97109.41
2019-01-13T09:42:31.515Z,97109.77
2019-01-13T09:45:04.077Z,97103.23
2019-01-13T09:47:36.392Z,97087.71
2019-01-13T09:50:10.944Z,97090.95
2019-01-13T09:52:43.269Z,97091.95
2019-01-13T09:55:17.616Z,97086.75
2019-01-13T09:57:50.052Z,97079.61
2019-01-13T10:00:34.868Z,97061.59
2019-01-13T10:03:09.018Z,97054.80
2019-01-13T10:05:41.557Z,97054.45
2019-01-13T10:08:14.059Z,97057.70
2019-01-13T10:10:46.231Z,97041.63
2019-01-13T10:13:18.636Z,97041.95
2019-01-13T10:15:50.991Z,97036.67
2019-01-13T10:18:23.195Z,97040.06
2019-01-13T10:20:56.158Z,97039.95
2019-01-13T10:23:28.531Z,97033.73
2019-01-13T10:26:00.987Z,97031.22
2019-01-13T10:28:33.286Z,97025.73
2019-01-13T10:31:05.748Z,97019.58
2019-01-13T10:33:37.950Z,97003.95
2019-01-13T10:36:10.459Z,96974.33
2019-01-13T10:38:42.867Z,96978.69
2019-01-13T10:41:15.198Z,96987.23
2019-01-13T10:43:47.407Z,96985.06
2019-01-13T10:46:19.664Z,96987.14
2019-01-13T10:48:51.858Z,96974.53
2019-01-13T10:51:24.123Z,96965.77
2019-01-13T10:53:56.513Z,96961.67
2019-01-13T10:56:28.814Z,96957.84
2019-01-13T10:59:01.024Z,96946.27
2019-01-13T11:01:33.296Z,96942.75
2019-01-13T11:04:06.648Z,96938.44
2019-01-13T11:06:40.258Z,96934.88
2019-01-13T11:09:14.599Z,96939.42
2019-01-13T11:11:47.511Z,96936.14
2019-01-13T11:14:20.131Z,96934.52
2019-01-13T11:16:52.841Z,96934.95
2019-01-13T11:19:25.238Z,96937.34
2019-01-13T11:21:57.606Z,96927.80
2019-01-13T11:24:29.931Z,96923.97
2019-01-13T11:27:02.080Z,96911.73
2019-01-13T11:29:34.527Z,96904.09
2019-01-13T11:32:06.691Z,96899.16
2019-01-13T11:34:38.992Z,96893.28
2019-01-13T11:37:11.355Z,96890.47
2019-01-13T11:39:43.752Z,96884.03
2019-01-13T11:42:16.012Z,96867.87
2019-01-13T11:44:48.322Z,96865.58
2019-01-13T11:47:20.581Z,96863.45
2019-01-13T11:49:52.996Z,96858.42
2019-01-13T11:52:25.154Z,96859.37
2019-01-13T11:54:57.549Z,96847.55
2019-01-13T11:57:29.833Z,96840.75
2019-01-13T12:00:02.036Z,96839.42
2019-01-13T12:02:34.204Z,96836.58
2019-01-13T12:05:07.457Z,96843.53
2019-01-13T12:07:40.024Z,96836.50
2019-01-13T12:10:15.131Z,96837.89
2019-01-13T12:12:47.601Z,96830.95
2019-01-13T12:15:20.668Z,96827.12
2019-01-13T12:17:53.132Z,96821.69
2019-01-13T12:20:26.523Z,96810.50
2019-01-13T12:22:58.734Z,96792.95
2019-01-13T12:25:31.136Z,96789.05
2019-01-13T12:28:03.594Z,96773.61
2019-01-13T12:30:36.329Z,96765.31
2019-01-13T12:33:08.703Z,96773.43
2019-01-13T12:35:41.120Z,96753.06
2019-01-13T12:38:13.476Z,96746.87
2019-01-13T12:40:46.745Z,96747.88
2019-01-13T12:43:19.349Z,96732.92
2019-01-13T12:45:54.878Z,96727.58
2019-01-13T12:48:27.548Z,96723.37
2019-01-13T12:51:00.321Z,96705.83
2019-01-13T12:53:32.577Z,96700.58
2019-01-13T12:56:04.959Z,96685.54
2019-01-13T12:58:37.221Z,96683.72
2019-01-13T13:01:09.702Z,96657.13
2019-01-13T13:03:42.061Z,96672.13
2019-01-13T13:06:14.587Z,96669.89
2019-01-13T13:08:47.029Z,96668.03
2019-01-13T13:11:19.235Z,96647.83
2019-01-13T13:13:51.435Z,96647.56
2019-01-13T13:16:23.845Z,96648.36
2019-01-13T13:18:56.141Z,96645.75
2019-01-13T13:21:28.477Z,96633.61
2019-01-13T13:24:00.845Z,96626.19
2019-01-13T13:26:33.322Z,96622.26
2019-01-13T13:29:05.825Z,96608.30
2019-01-13T13:31:38.033Z,96604.42
2019-01-13T13:34:10.279Z,96597.16
2019-01-13T13:36:42.795Z,96601.97
2019-01-13T13:39:15.161Z,96586.95
2019-01-13T13:41:47.376Z,96586.90
2019-01-13T13:44:19.529Z,96582.56
2019-01-13T13:46:51.726Z,96575.30
2019-01-13T13:49:23.935Z,96573.39
2019-01-13T13:51:56.355Z,96569.45
2019-01-13T13:54:28.757Z,96571.41
2019-01-13T13:57:01.217Z,96572.42
2019-01-13T13:59:33.523Z,96567.36
2019-01-13T14:02:06.050Z,96553.32
2019-01-13T14:04:38.257Z,96531.09
2019-01-13T14:07:10.671Z,96523.55
2019-01-13T14:09:42.876Z,96517.52
2019-01-13T14:12:15.295Z,96523.78
2019-01-13T14:14:47.495Z,96520.10
2019-01-13T14:17:19.705Z,96520.66
2019-01-13T14:19:52.012Z,96518.69
2019-01-13T14:22:24.326Z,96522.92
2019-01-13T14:24:56.629Z,96516.13
2019-01-13T14:27:28.846Z,96494.14
2019-01-13T14:30:01.051Z,96499.61
2019-01-13T14:32:33.367Z,96494.61
2019-01-13T14:35:06.494Z,96491.16
2019-01-13T14:37:38.903Z,96480.14
2019-01-13T14:40:18.088Z,96479.75
2019-01-13T14:42:50.913Z,96481.08
2019-01-13T14:45:26.062Z,96486.02
2019-01-13T14:47:58.581Z,96474.04
2019-01-13T14:50:34.979Z,96474.12
2019-01-13T14:53:09.107Z,96477.75
2019-01-13T14:55:41.364Z,96476.55
2019-01-13T14:58:14.944Z,96473.33
2019-01-13T15:00:47.378Z,96464.55
2019-01-13T15:03:19.584Z,96462.01
2019-01-13T15:05:52.027Z,96458.53
2019-01-13T15:08:24.445Z,96450.88
2019-01-13T15:10:56.653Z,96458.24
2019-01-13T15:13:28.863Z,96446.36
2019-01-13T15:16:05.894Z,96444.84
2019-01-13T15:18:38.096Z,96439.39
2019-01-13T15:21:10.601Z,96423.88
2019-01-13T15:23:42.816Z,96412.95
2019-01-13T15:26:15.139Z,96410.19
2019-01-13T15:28:47.352Z,96413.45
2019-01-13T15:31:19.665Z,96407.75
2019-01-13T15:33:51.981Z,96406.52
2019-01-13T15:36:24.771Z,96406.22
2019-01-13T15:38:56.999Z,96402.39
2019-01-13T15:41:29.304Z,96393.78
2019-01-13T15:44:01.522Z,96390.15
2019-01-13T15:46:33.723Z,96386.25
2019-01-13T15:49:05.945Z,96379.55
2019-01-13T15:51:38.355Z,96362.81
2019-01-13T15:54:10.571Z,96366.58
2019-01-13T15:56:42.924Z,96358.72
2019-01-13T15:59:15.237Z,96360.41
2019-01-13T16:01:47.751Z,96350.91
2019-01-13T16:04:19.956Z,96347.33
2019-01-13T16:06:52.221Z,96350.31
2019-01-13T16:09:24.430Z,96357.33
2019-01-13T16:11:56.746Z,96355.74
2019-01-13T16:14:29.061Z,96356.84
2019-01-13T16:17:01.363Z,96353.34
2019-01-13T16:19:33.576Z,96341.90
2019-01-13T16:22:06.253Z,96343.29
2019-01-13T16:24:38.467Z,96344.17
2019-01-13T16:27:10.866Z,96346.86
2019-01-13T16:29:43.149Z,96325.93
2019-01-13T16:32:15.444Z,96328.91
2019-01-13T16:34:47.657Z,96330.00
2019-01-13T16:37:19.964Z,96321.53
2019-01-13T16:39:52.184Z,96319.05
2019-01-13T16:42:24.396Z,96312.66
2019-01-13T16:44:56.607Z,96309.36
2019-01-13T16:47:28.930Z,96301.05
2019-01-13T16:50:01.146Z,96280.11
2019-01-13T16:52:33.656Z,96268.45
2019-01-13T16:55:07.283Z,96271.80
2019-01-13T16:57:39.897Z,96262.88
2019-01-13T17:00:17.449Z,96277.17
2019-01-13T17:02:49.931Z,96277.68
2019-01-13T17:05:23.715Z,96278.51
2019-01-13T17:07:56.132Z,96272.93
2019-01-13T17:10:28.819Z,96272.81
2019-01-13T17:13:01.127Z,96273.88
2019-01-13T17:15:38.223Z,96267.33
2019-01-13T17:18:11.339Z,96259.33
2019-01-13T17:20:43.751Z,96270.86
2019-01-13T17:23:16.162Z,96255.27
2019-01-13T17:25:49.898Z,96259.40
2019-01-13T17:28:22.111Z,96252.25
2019-01-13T17:30:54.523Z,96248.02
2019-01-13T17:33:26.934Z,96250.66
2019-01-13T17:35:59.238Z,96239.09
2019-01-13T17:38:31.544Z,96239.09
2019-01-13T17:41:03.868Z,96227.63
2019-01-13T17:43:36.276Z,96234.32
2019-01-13T17:46:08.590Z,96225.05
2019-01-13T17:48:40.803Z,96221.37
2019-01-13T17:51:13.198Z,96222.36
2019-01-13T17:53:45.512Z,96223.04
2019-01-13T17:56:17.973Z,96225.58
2019-01-13T17:58:50.181Z,96222.08
2019-01-13T18:01:47.621Z,96235.53
2019-01-13T18:04:19.862Z,96224.36
2019-01-13T18:06:52.178Z,96207.06
2019-01-13T18:09:24.488Z,96209.17
2019-01-13T18:11:56.705Z,96215.75
2019-01-13T18:14:29.004Z,96203.58
2019-01-13T18:17:06.403Z,96195.59
2019-01-13T18:19:35.415Z,96192.91
2019-01-13T18:22:07.828Z,96175.05
2019-01-13T18:24:40.048Z,96178.78
2019-01-13T18:27:12.351Z,96170.06
2019-01-13T18:29:44.564Z,96169.17
2019-01-13T18:32:16.869Z,96186.85
2019-01-13T18:34:50.475Z,96169.66
2019-01-13T18:37:22.968Z,96162.59
2019-01-13T18:39:55.272Z,96152.63
2019-01-13T18:42:27.484Z,96159.94
2019-01-13T18:44:59.692Z,96156.22
2019-01-13T18:47:31.910Z,96159.91
2019-01-13T18:50:04.697Z,96150.95
2019-01-13T18:52:37.111Z,96155.46
2019-01-13T18:55:10.241Z,96154.37
2019-01-13T18:57:42.660Z,96145.13
2019-01-13T19:00:19.498Z,96138.41
2019-01-13T19:02:54.340Z,96142.11
2019-01-13T19:05:26.992Z,96135.75
2019-01-13T19:07:59.203Z,96143.13
2019-01-13T19:10:47.266Z,96128.13
2019-01-13T19:14:21.827Z,96136.77
2019-01-13T19:17:15.461Z,96133.77
2019-01-13T19:20:12.214Z,96141.12
2019-01-13T19:22:47.851Z,96132.94
2019-01-13T19:25:42.783Z,96142.56
2019-01-13T19:28:15.151Z,96133.95
2019-01-13T19:30:47.452Z,96133.80
2019-01-13T19:33:19.821Z,96151.40
2019-01-13T19:35:52.399Z,96140.17
2019-01-13T19:38:24.555Z,96137.95
2019-01-13T19:40:56.867Z,96141.77
2019-01-13T19:43:29.237Z,96148.32
2019-01-13T19:46:01.547Z,96153.06
2019-01-13T19:48:33.802Z,96156.54
2019-01-13T19:51:06.211Z,96150.92
2019-01-13T19:53:38.475Z,96163.20
2019-01-13T19:56:11.033Z,96150.45
2019-01-13T19:58:43.380Z,96144.86
2019-01-13T20:01:15.599Z,96151.09
2019-01-13T20:03:47.963Z,96142.70
2019-01-13T20:06:20.467Z,96130.41
2019-01-13T20:08:52.719Z,96134.73
2019-01-13T20:11:25.111Z,96140.11
2019-01-13T20:13:57.396Z,96143.24
2019-01-13T20:16:29.920Z,96132.98
2019-01-13T20:19:02.188Z,96129.09
2019-01-13T20:21:34.396Z,96127.52
2019-01-13T20:24:06.772Z,96125.08
2019-01-13T20:26:39.180Z,96124.11
2019-01-13T20:29:11.449Z,96118.50
2019-01-13T20:31:43.669Z,96117.33
2019-01-13T20:34:15.929Z,96128.98
2019-01-13T20:36:48.142Z,96121.46
2019-01-13T20:39:20.399Z,96111.56
2019-01-13T20:41:52.814Z,96110.72
2019-01-13T20:48:17.617Z,96122.03
2019-01-13T20:50:49.784Z,96124.70
2019-01-13T20:53:22.098Z,96121.80
2019-01-13T20:55:54.512Z,96117.81
2019-01-13T20:58:26.823Z,96104.38
2019-01-13T21:00:59.087Z,96105.81
2019-01-13T21:03:31.494Z,96106.41
2019-01-13T21:06:03.936Z,96103.34
2019-01-13T21:08:36.251Z,96101.54
2019-01-13T21:11:08.607Z,96093.55
2019-01-13T21:13:40.915Z,96097.16
2019-01-13T21:16:13.232Z,96092.55
2019-01-13T21:18:45.532Z,96093.69
2019-01-13T21:21:18.089Z,96082.37
2019-01-13T21:23:50.299Z,96079.14
2019-01-13T21:26:22.552Z,96067.55
2019-01-13T21:28:54.753Z,96071.52
2019-01-13T21:31:27.122Z,96061.72
2019-01-13T21:33:59.518Z,96068.85
2019-01-13T21:36:31.791Z,96064.50
2019-01-13T21:39:05.656Z,96061.58
2019-01-13T21:41:37.924Z,96072.13
2019-01-13T21:44:10.335Z,96065.44
2019-01-13T21:46:42.600Z,96075.70
2019-01-13T21:49:14.807Z,96081.19
2019-01-13T21:51:46.980Z,96090.03
2019-01-13T21:54:19.385Z,96115.94
2019-01-13T21:56:51.601Z,96102.34
2019-01-13T21:59:23.905Z,96118.19
2019-01-13T22:01:56.271Z,96113.19
2019-01-13T22:04:28.582Z,96120.68
2019-01-13T22:07:00.854Z,96113.95
2019-01-13T22:09:33.159Z,96133.52
2019-01-13T22:12:05.634Z,96122.56
2019-01-13T22:14:37.845Z,96130.08
2019-01-13T22:17:10.105Z,96121.39
2019-01-13T22:19:42.321Z,96130.19
2019-01-13T22:22:14.587Z,96124.69
2019-01-13T22:24:46.892Z,96137.97
2019-01-13T22:27:19.058Z,96132.17
2019-01-13T22:29:51.269Z,96125.52
2019-01-13T22:32:23.630Z,96138.16
2019-01-13T22:34:55.946Z,96148.70
2019-01-13T22:37:28.305Z,96147.53
2019-01-13T22:40:00.611Z,96149.16
2019-01-13T22:42:32.783Z,96145.11
2019-01-13T22:45:06.230Z,96148.98
2019-01-13T22:47:38.599Z,96149.57
2019-01-13T22:50:13.172Z,96154.01
2019-01-13T22:52:45.743Z,96169.04
2019-01-13T22:55:18.200Z,96185.77
2019-01-13T22:57:50.455Z,96183.98
2019-01-13T23:01:02.451Z,96185.39
2019-01-13T23:03:34.871Z,96181.20
2019-01-13T23:06:07.658Z,96177.66
2019-01-13T23:08:39.861Z,96179.83
2019-01-13T23:11:12.283Z,96175.59
2019-01-13T23:13:44.603Z,96176.55
2019-01-13T23:16:17.006Z,96178.80
2019-01-13T23:18:49.411Z,96177.27
2019-01-13T23:21:21.813Z,96178.91
2019-01-13T23:23:54.135Z,96182.20
2019-01-13T23:26:26.361Z,96190.43
2019-01-13T23:28:59.045Z,96201.75
2019-01-13T23:31:31.560Z,96195.75
2019-01-13T23:34:03.773Z,96199.67
2019-01-13T23:36:35.980Z,96202.98
2019-01-13T23:39:10.279Z,96199.12
2019-01-13T23:41:42.597Z,96203.58
2019-01-13T23:44:14.918Z,96203.52
2019-01-13T23:46:47.225Z,96213.41
2019-01-13T23:49:19.710Z,96209.98
2019-01-13T23:51:51.916Z,96222.20
2019-01-13T23:54:24.267Z,96222.17
2019-01-13T23:56:56.582Z,96226.77
2019-01-13T23:59:29.179Z,96227.06
